sensor_id;sensor_type;location;lat;lon;timestamp;pressure;altitude;pressure_sealevel;temperature;humidity
14067;BME280;7108;42.684;23.350;2023-04-25T00:01:33;94629.56;;;12.70;100.00
14067;BME280;7108;42.684;23.350;2023-04-25T00:04:02;94621.44;;;12.74;100.00
14067;BME280;7108;42.684;23.350;2023-04-25T00:06:29;94626.84;;;12.81;100.00
14067;BME280;7108;42.684;23.350;2023-04-25T00:08:55;94614.50;;;12.83;100.00
14067;BME280;7108;42.684;23.350;2023-04-25T00:11:22;94601.38;;;12.85;100.00
14067;BME280;7108;42.684;23.350;2023-04-25T00:13:47;94597.09;;;12.77;100.00
14067;BME280;7108;42.684;23.350;2023-04-25T00:16:14;94584.75;;;12.69;100.00
14067;BME280;7108;42.684;23.350;2023-04-25T00:18:41;94575.84;;;12.69;100.00
14067;BME280;7108;42.684;23.350;2023-04-25T00:21:08;94572.00;;;12.73;100.00
14067;BME280;7108;42.684;23.350;2023-04-25T00:23:33;94572.38;;;12.58;100.00
14067;BME280;7108;42.684;23.350;2023-04-25T00:26:01;94558.47;;;12.66;100.00
14067;BME280;7108;42.684;23.350;2023-04-25T00:28:27;94575.09;;;12.72;100.00
14067;BME280;7108;42.684;23.350;2023-04-25T00:30:52;94573.56;;;12.74;100.00
14067;BME280;7108;42.684;23.350;2023-04-25T00:33:18;94563.88;;;12.66;100.00
14067;BME280;7108;42.684;23.350;2023-04-25T00:35:43;94563.50;;;12.61;100.00
14067;BME280;7108;42.684;23.350;2023-04-25T00:38:09;94564.69;;;12.67;100.00
14067;BME280;7108;42.684;23.350;2023-04-25T00:40:34;94563.91;;;12.70;100.00
14067;BME280;7108;42.684;23.350;2023-04-25T00:43:00;94557.34;;;12.71;100.00
14067;BME280;7108;42.684;23.350;2023-04-25T00:45:29;94555.41;;;12.57;100.00
14067;BME280;7108;42.684;23.350;2023-04-25T00:47:55;94545.75;;;12.43;100.00
14067;BME280;7108;42.684;23.350;2023-04-25T00:50:20;94552.28;;;12.38;100.00
14067;BME280;7108;42.684;23.350;2023-04-25T00:52:46;94556.53;;;12.36;100.00
14067;BME280;7108;42.684;23.350;2023-04-25T00:55:12;94543.41;;;12.17;100.00
14067;BME280;7108;42.684;23.350;2023-04-25T00:57:38;94560.78;;;12.26;100.00
14067;BME280;7108;42.684;23.350;2023-04-25T01:00:05;94561.16;;;12.28;100.00
14067;BME280;7108;42.684;23.350;2023-04-25T01:02:32;94567.72;;;12.34;100.00
14067;BME280;7108;42.684;23.350;2023-04-25T01:04:58;94570.44;;;12.34;100.00
14067;BME280;7108;42.684;23.350;2023-04-25T01:07:24;94569.28;;;12.45;100.00
14067;BME280;7108;42.684;23.350;2023-04-25T01:09:51;94556.94;;;12.38;100.00
14067;BME280;7108;42.684;23.350;2023-04-25T01:12:17;94549.22;;;12.36;100.00
14067;BME280;7108;42.684;23.350;2023-04-25T01:14:42;94539.94;;;12.41;100.00
14067;BME280;7108;42.684;23.350;2023-04-25T01:17:09;94539.19;;;12.37;100.00
14067;BME280;7108;42.684;23.350;2023-04-25T01:19:35;94529.94;;;12.41;100.00
14067;BME280;7108;42.684;23.350;2023-04-25T01:22:00;94538.78;;;12.38;100.00
14067;BME280;7108;42.684;23.350;2023-04-25T01:24:26;94542.25;;;12.42;100.00
14067;BME280;7108;42.684;23.350;2023-04-25T01:26:53;94518.31;;;12.37;100.00
14067;BME280;7108;42.684;23.350;2023-04-25T01:29:22;94525.31;;;12.52;100.00
14067;BME280;7108;42.684;23.350;2023-04-25T01:31:48;94529.16;;;12.54;100.00
14067;BME280;7108;42.684;23.350;2023-04-25T01:34:13;94522.22;;;12.57;100.00
14067;BME280;7108;42.684;23.350;2023-04-25T01:36:39;94511.78;;;12.45;100.00
14067;BME280;7108;42.684;23.350;2023-04-25T01:39:06;94516.81;;;12.57;100.00
14067;BME280;7108;42.684;23.350;2023-04-25T01:41:32;94523.38;;;12.52;100.00
14067;BME280;7108;42.684;23.350;2023-04-25T01:43:57;94522.97;;;12.61;100.00
14067;BME280;7108;42.684;23.350;2023-04-25T01:46:23;94523.34;;;12.70;100.00
14067;BME280;7108;42.684;23.350;2023-04-25T01:48:48;94514.88;;;12.64;100.00
14067;BME280;7108;42.684;23.350;2023-04-25T01:51:14;94517.56;;;12.61;100.00
14067;BME280;7108;42.684;23.350;2023-04-25T01:53:40;94523.38;;;12.59;100.00
14067;BME280;7108;42.684;23.350;2023-04-25T01:56:06;94536.09;;;12.69;100.00
14067;BME280;7108;42.684;23.350;2023-04-25T01:58:31;94534.16;;;12.70;100.00
14067;BME280;7108;42.684;23.350;2023-04-25T02:00:57;94524.13;;;12.63;100.00
14067;BME280;7108;42.684;23.350;2023-04-25T02:03:22;94527.22;;;12.65;100.00
14067;BME280;7108;42.684;23.350;2023-04-25T02:05:48;94527.59;;;12.67;100.00
14067;BME280;7108;42.684;23.350;2023-04-25T02:08:13;94524.50;;;12.69;100.00
14067;BME280;7108;42.684;23.350;2023-04-25T02:10:39;94521.03;;;12.65;100.00
14067;BME280;7108;42.684;23.350;2023-04-25T02:13:04;94513.69;;;12.69;100.00
14067;BME280;7108;42.684;23.350;2023-04-25T02:15:30;94513.34;;;12.70;100.00
14067;BME280;7108;42.684;23.350;2023-04-25T02:17:56;94516.78;;;12.64;100.00
14067;BME280;7108;42.684;23.350;2023-04-25T02:20:24;94505.97;;;12.64;100.00
14067;BME280;7108;42.684;23.350;2023-04-25T02:22:50;94494.81;;;12.62;100.00
14067;BME280;7108;42.684;23.350;2023-04-25T02:25:17;94492.84;;;12.59;100.00
14067;BME280;7108;42.684;23.350;2023-04-25T02:27:42;94484.00;;;12.62;100.00
14067;BME280;7108;42.684;23.350;2023-04-25T02:30:08;94495.56;;;12.59;100.00
14067;BME280;7108;42.684;23.350;2023-04-25T02:32:34;94484.75;;;12.55;100.00
14067;BME280;7108;42.684;23.350;2023-04-25T02:35:02;94477.03;;;12.50;100.00
14067;BME280;7108;42.684;23.350;2023-04-25T02:37:32;94480.88;;;12.53;100.00
14067;BME280;7108;42.684;23.350;2023-04-25T02:39:57;94477.44;;;12.49;100.00
14067;BME280;7108;42.684;23.350;2023-04-25T02:42:23;94474.72;;;12.49;100.00
14067;BME280;7108;42.684;23.350;2023-04-25T02:44:49;94479.38;;;12.48;100.00
14067;BME280;7108;42.684;23.350;2023-04-25T02:47:14;94486.72;;;12.41;100.00
14067;BME280;7108;42.684;23.350;2023-04-25T02:49:40;94474.34;;;12.30;100.00
14067;BME280;7108;42.684;23.350;2023-04-25T02:52:05;94473.94;;;12.35;100.00
14067;BME280;7108;42.684;23.350;2023-04-25T02:54:31;94475.88;;;12.34;100.00
14067;BME280;7108;42.684;23.350;2023-04-25T02:56:57;94467.38;;;12.32;100.00
14067;BME280;7108;42.684;23.350;2023-04-25T02:59:22;94465.09;;;12.38;100.00
14067;BME280;7108;42.684;23.350;2023-04-25T03:01:47;94457.38;;;12.26;100.00
14067;BME280;7108;42.684;23.350;2023-04-25T03:04:13;94472.41;;;12.23;100.00
14067;BME280;7108;42.684;23.350;2023-04-25T03:06:38;94457.75;;;12.17;100.00
14067;BME280;7108;42.684;23.350;2023-04-25T03:09:04;94470.47;;;12.27;100.00
14067;BME280;7108;42.684;23.350;2023-04-25T03:11:29;94459.28;;;12.18;100.00
14067;BME280;7108;42.684;23.350;2023-04-25T03:13:55;94453.13;;;12.11;100.00
14067;BME280;7108;42.684;23.350;2023-04-25T03:16:21;94456.19;;;12.16;100.00
14067;BME280;7108;42.684;23.350;2023-04-25T03:18:47;94465.09;;;12.13;100.00
14067;BME280;7108;42.684;23.350;2023-04-25T03:21:12;94465.09;;;12.03;100.00
14067;BME280;7108;42.684;23.350;2023-04-25T03:23:38;94464.66;;;11.90;100.00
14067;BME280;7108;42.684;23.350;2023-04-25T03:26:03;94475.06;;;11.95;100.00
14067;BME280;7108;42.684;23.350;2023-04-25T03:28:29;94460.44;;;12.03;100.00
14067;BME280;7108;42.684;23.350;2023-04-25T03:30:54;94451.97;;;11.94;100.00
14067;BME280;7108;42.684;23.350;2023-04-25T03:33:20;94456.19;;;11.85;100.00
14067;BME280;7108;42.684;23.350;2023-04-25T03:35:45;94468.91;;;11.88;100.00
14067;BME280;7108;42.684;23.350;2023-04-25T03:38:11;94459.25;;;11.80;100.00
14067;BME280;7108;42.684;23.350;2023-04-25T03:40:36;94461.19;;;11.76;100.00
14067;BME280;7108;42.684;23.350;2023-04-25T03:43:02;94456.94;;;11.72;100.00
14067;BME280;7108;42.684;23.350;2023-04-25T03:45:27;94458.13;;;11.81;100.00
14067;BME280;7108;42.684;23.350;2023-04-25T03:47:52;94465.81;;;11.79;100.00
14067;BME280;7108;42.684;23.350;2023-04-25T03:50:18;94470.84;;;11.87;100.00
14067;BME280;7108;42.684;23.350;2023-04-25T03:52:43;94465.06;;;11.92;100.00
14067;BME280;7108;42.684;23.350;2023-04-25T03:55:09;94455.81;;;11.93;100.00
14067;BME280;7108;42.684;23.350;2023-04-25T03:57:35;94465.81;;;11.82;100.00
14067;BME280;7108;42.684;23.350;2023-04-25T04:00:00;94471.59;;;11.91;100.00
14067;BME280;7108;42.684;23.350;2023-04-25T04:02:26;94470.84;;;11.98;100.00
14067;BME280;7108;42.684;23.350;2023-04-25T04:04:51;94476.63;;;11.96;100.00
14067;BME280;7108;42.684;23.350;2023-04-25T04:07:17;94475.47;;;11.94;100.00
14067;BME280;7108;42.684;23.350;2023-04-25T04:09:42;94470.06;;;11.87;100.00
14067;BME280;7108;42.684;23.350;2023-04-25T04:12:07;94491.69;;;12.04;100.00
14067;BME280;7108;42.684;23.350;2023-04-25T04:14:33;94487.84;;;12.12;100.00
14067;BME280;7108;42.684;23.350;2023-04-25T04:16:58;94481.66;;;12.05;100.00
14067;BME280;7108;42.684;23.350;2023-04-25T04:19:25;94484.38;;;12.08;100.00
14067;BME280;7108;42.684;23.350;2023-04-25T04:21:50;94476.28;;;12.15;100.00
14067;BME280;7108;42.684;23.350;2023-04-25T04:24:16;94478.19;;;12.11;100.00
14067;BME280;7108;42.684;23.350;2023-04-25T04:26:42;94487.44;;;12.14;100.00
14067;BME280;7108;42.684;23.350;2023-04-25T04:29:10;94480.50;;;12.16;100.00
14067;BME280;7108;42.684;23.350;2023-04-25T04:31:35;94479.75;;;12.16;100.00
14067;BME280;7108;42.684;23.350;2023-04-25T04:34:02;94470.47;;;12.13;100.00
14067;BME280;7108;42.684;23.350;2023-04-25T04:36:29;94469.69;;;12.02;100.00
14067;BME280;7108;42.684;23.350;2023-04-25T04:38:54;94478.94;;;11.98;100.00
14067;BME280;7108;42.684;23.350;2023-04-25T04:41:21;94481.63;;;11.98;100.00
14067;BME280;7108;42.684;23.350;2023-04-25T04:43:47;94468.94;;;11.98;100.00
14067;BME280;7108;42.684;23.350;2023-04-25T04:46:13;94476.66;;;12.10;100.00
14067;BME280;7108;42.684;23.350;2023-04-25T04:48:38;94478.59;;;12.13;100.00
14067;BME280;7108;42.684;23.350;2023-04-25T04:51:05;94481.28;;;12.17;100.00
14067;BME280;7108;42.684;23.350;2023-04-25T04:53:31;94490.53;;;12.33;100.00
14067;BME280;7108;42.684;23.350;2023-04-25T04:55:57;94489.00;;;12.32;100.00
14067;BME280;7108;42.684;23.350;2023-04-25T04:58:23;94481.69;;;12.33;100.00
14067;BME280;7108;42.684;23.350;2023-04-25T05:00:48;94503.69;;;12.42;100.00
14067;BME280;7108;42.684;23.350;2023-04-25T05:03:13;94487.06;;;12.40;100.00
14067;BME280;7108;42.684;23.350;2023-04-25T05:05:39;94494.03;;;12.44;100.00
14067;BME280;7108;42.684;23.350;2023-04-25T05:08:07;94490.56;;;12.40;100.00
14067;BME280;7108;42.684;23.350;2023-04-25T05:10:33;94504.06;;;12.50;100.00
14067;BME280;7108;42.684;23.350;2023-04-25T05:12:58;94502.91;;;12.58;100.00
14067;BME280;7108;42.684;23.350;2023-04-25T05:15:24;94502.13;;;12.51;100.00
14067;BME280;7108;42.684;23.350;2023-04-25T05:17:50;94506.78;;;12.40;100.00
14067;BME280;7108;42.684;23.350;2023-04-25T05:20:15;94520.25;;;12.30;100.00
14067;BME280;7108;42.684;23.350;2023-04-25T05:22:41;94521.44;;;12.29;100.00
14067;BME280;7108;42.684;23.350;2023-04-25T05:25:08;94503.28;;;12.33;100.00
14067;BME280;7108;42.684;23.350;2023-04-25T05:27:33;94507.13;;;12.45;100.00
14067;BME280;7108;42.684;23.350;2023-04-25T05:29:59;94509.84;;;12.56;100.00
14067;BME280;7108;42.684;23.350;2023-04-25T05:32:24;94517.19;;;12.62;100.00
14067;BME280;7108;42.684;23.350;2023-04-25T05:34:50;94505.59;;;12.58;100.00
14067;BME280;7108;42.684;23.350;2023-04-25T05:37:17;94503.28;;;12.64;100.00
14067;BME280;7108;42.684;23.350;2023-04-25T05:39:42;94500.22;;;12.58;100.00
14067;BME280;7108;42.684;23.350;2023-04-25T05:42:07;94493.25;;;12.54;100.00
14067;BME280;7108;42.684;23.350;2023-04-25T05:44:33;94500.22;;;12.58;100.00
14067;BME280;7108;42.684;23.350;2023-04-25T05:46:59;94502.88;;;12.65;100.00
14067;BME280;7108;42.684;23.350;2023-04-25T05:49:24;94499.81;;;12.63;100.00
14067;BME280;7108;42.684;23.350;2023-04-25T05:51:50;94501.34;;;12.71;100.00
14067;BME280;7108;42.684;23.350;2023-04-25T05:54:15;94503.28;;;12.78;100.00
14067;BME280;7108;42.684;23.350;2023-04-25T05:56:41;94503.28;;;12.74;100.00
14067;BME280;7108;42.684;23.350;2023-04-25T05:59:06;94504.81;;;12.86;100.00
14067;BME280;7108;42.684;23.350;2023-04-25T06:01:31;94496.72;;;12.93;100.00
14067;BME280;7108;42.684;23.350;2023-04-25T06:04:04;94488.22;;;12.91;100.00
14067;BME280;7108;42.684;23.350;2023-04-25T06:06:30;94492.47;;;12.95;100.00
14067;BME280;7108;42.684;23.350;2023-04-25T06:08:55;94488.97;;;13.02;100.00
14067;BME280;7108;42.684;23.350;2023-04-25T06:11:21;94490.50;;;13.06;100.00
14067;BME280;7108;42.684;23.350;2023-04-25T06:13:46;94490.88;;;13.08;100.00
14067;BME280;7108;42.684;23.350;2023-04-25T06:16:11;94485.88;;;13.00;100.00
14067;BME280;7108;42.684;23.350;2023-04-25T06:18:37;94486.66;;;13.04;100.00
14067;BME280;7108;42.684;23.350;2023-04-25T06:21:02;94488.97;;;13.05;100.00
14067;BME280;7108;42.684;23.350;2023-04-25T06:23:28;94492.03;;;13.14;100.00
14067;BME280;7108;42.684;23.350;2023-04-25T06:25:53;94497.41;;;13.21;100.00
14067;BME280;7108;42.684;23.350;2023-04-25T06:28:19;94504.38;;;13.18;100.00
14067;BME280;7108;42.684;23.350;2023-04-25T06:30:44;94498.19;;;13.21;100.00
14067;BME280;7108;42.684;23.350;2023-04-25T06:33:10;94492.78;;;13.21;100.00
14067;BME280;7108;42.684;23.350;2023-04-25T06:35:35;94485.41;;;13.29;100.00
14067;BME280;7108;42.684;23.350;2023-04-25T06:38:01;94490.41;;;13.41;100.00
14067;BME280;7108;42.684;23.350;2023-04-25T06:40:26;94491.13;;;13.55;100.00
14067;BME280;7108;42.684;23.350;2023-04-25T06:42:51;94499.59;;;13.57;100.00
14067;BME280;7108;42.684;23.350;2023-04-25T06:45:17;94490.69;;;13.60;100.00
14067;BME280;7108;42.684;23.350;2023-04-25T06:47:42;94502.28;;;13.61;100.00
14067;BME280;7108;42.684;23.350;2023-04-25T06:50:08;94504.19;;;13.67;100.00
14067;BME280;7108;42.684;23.350;2023-04-25T06:52:34;94504.94;;;13.74;100.00
14067;BME280;7108;42.684;23.350;2023-04-25T06:54:59;94498.41;;;13.65;100.00
14067;BME280;7108;42.684;23.350;2023-04-25T06:57:24;94479.09;;;13.56;100.00
14067;BME280;7108;42.684;23.350;2023-04-25T06:59:50;94497.25;;;13.66;100.00
14067;BME280;7108;42.684;23.350;2023-04-25T07:02:16;94496.44;;;13.69;100.00
14067;BME280;7108;42.684;23.350;2023-04-25T07:04:41;94496.84;;;13.71;100.00
14067;BME280;7108;42.684;23.350;2023-04-25T07:07:07;94499.50;;;13.74;100.00
14067;BME280;7108;42.684;23.350;2023-04-25T07:09:32;94496.34;;;13.86;100.00
14067;BME280;7108;42.684;23.350;2023-04-25T07:11:59;94494.06;;;13.85;100.00
14067;BME280;7108;42.684;23.350;2023-04-25T07:14:27;94489.81;;;13.77;100.00
14067;BME280;7108;42.684;23.350;2023-04-25T07:16:52;94496.84;;;13.71;100.00
14067;BME280;7108;42.684;23.350;2023-04-25T07:19:18;94496.44;;;13.73;100.00
14067;BME280;7108;42.684;23.350;2023-04-25T07:21:43;94482.19;;;13.62;100.00
14067;BME280;7108;42.684;23.350;2023-04-25T07:24:08;94491.03;;;13.73;100.00
14067;BME280;7108;42.684;23.350;2023-04-25T07:26:34;94492.53;;;13.80;100.00
14067;BME280;7108;42.684;23.350;2023-04-25T07:28:59;94487.91;;;13.81;100.00
14067;BME280;7108;42.684;23.350;2023-04-25T07:31:25;94487.84;;;13.84;100.00
14067;BME280;7108;42.684;23.350;2023-04-25T07:33:51;94491.34;;;13.85;100.00
14067;BME280;7108;42.684;23.350;2023-04-25T07:36:16;94494.38;;;13.94;100.00
14067;BME280;7108;42.684;23.350;2023-04-25T07:38:42;94489.34;;;13.96;100.00
14067;BME280;7108;42.684;23.350;2023-04-25T07:41:07;94485.03;;;14.09;100.00
14067;BME280;7108;42.684;23.350;2023-04-25T07:43:33;94482.69;;;14.14;100.00
14067;BME280;7108;42.684;23.350;2023-04-25T07:45:58;94474.84;;;14.27;100.00
14067;BME280;7108;42.684;23.350;2023-04-25T07:48:24;94484.09;;;14.36;100.00
14067;BME280;7108;42.684;23.350;2023-04-25T07:50:49;94470.56;;;14.33;100.00
14067;BME280;7108;42.684;23.350;2023-04-25T07:53:15;94467.50;;;14.27;100.00
14067;BME280;7108;42.684;23.350;2023-04-25T07:55:40;94462.50;;;14.19;100.00
14067;BME280;7108;42.684;23.350;2023-04-25T07:58:10;94475.63;;;14.24;100.00
14067;BME280;7108;42.684;23.350;2023-04-25T08:00:36;94468.31;;;14.21;100.00
14067;BME280;7108;42.684;23.350;2023-04-25T08:03:01;94464.78;;;14.24;100.00
14067;BME280;7108;42.684;23.350;2023-04-25T08:05:30;94453.59;;;14.25;100.00
14067;BME280;7108;42.684;23.350;2023-04-25T08:07:56;94458.94;;;14.29;100.00
14067;BME280;7108;42.684;23.350;2023-04-25T08:10:22;94455.50;;;14.25;100.00
14067;BME280;7108;42.684;23.350;2023-04-25T08:12:48;94455.00;;;14.43;100.00
14067;BME280;7108;42.684;23.350;2023-04-25T08:15:14;94457.88;;;14.66;100.00
14067;BME280;7108;42.684;23.350;2023-04-25T08:17:40;94448.13;;;14.72;100.00
14067;BME280;7108;42.684;23.350;2023-04-25T08:20:06;94453.38;;;14.90;100.00
14067;BME280;7108;42.684;23.350;2023-04-25T08:22:32;94444.00;;;14.98;100.00
14067;BME280;7108;42.684;23.350;2023-04-25T08:24:57;94439.34;;;14.98;100.00
14067;BME280;7108;42.684;23.350;2023-04-25T08:27:23;94446.56;;;15.11;100.00
14067;BME280;7108;42.684;23.350;2023-04-25T08:29:49;94435.56;;;15.25;100.00
14067;BME280;7108;42.684;23.350;2023-04-25T08:32:15;94425.41;;;15.33;100.00
14067;BME280;7108;42.684;23.350;2023-04-25T08:34:40;94428.19;;;15.59;100.00
14067;BME280;7108;42.684;23.350;2023-04-25T08:37:08;94432.44;;;15.60;100.00
14067;BME280;7108;42.684;23.350;2023-04-25T08:39:35;94445.28;;;15.56;100.00
14067;BME280;7108;42.684;23.350;2023-04-25T08:42:02;94440.75;;;15.46;100.00
14067;BME280;7108;42.684;23.350;2023-04-25T08:44:33;94442.31;;;15.44;100.00
14067;BME280;7108;42.684;23.350;2023-04-25T08:47:03;94463.13;;;15.20;100.00
14067;BME280;7108;42.684;23.350;2023-04-25T08:49:33;94473.56;;;15.25;100.00
14067;BME280;7108;42.684;23.350;2023-04-25T08:52:00;94456.47;;;14.92;100.00
14067;BME280;7108;42.684;23.350;2023-04-25T08:54:27;94470.50;;;14.83;100.00
14067;BME280;7108;42.684;23.350;2023-04-25T08:56:54;94469.38;;;14.77;100.00
14067;BME280;7108;42.684;23.350;2023-04-25T08:59:23;94471.06;;;14.64;100.00
14067;BME280;7108;42.684;23.350;2023-04-25T09:01:51;94465.28;;;14.59;100.00
14067;BME280;7108;42.684;23.350;2023-04-25T09:04:17;94455.56;;;14.65;100.00
14067;BME280;7108;42.684;23.350;2023-04-25T09:06:44;94458.25;;;14.68;100.00
14067;BME280;7108;42.684;23.350;2023-04-25T09:09:10;94451.72;;;14.62;100.00
14067;BME280;7108;42.684;23.350;2023-04-25T09:11:36;94441.34;;;14.50;100.00
14067;BME280;7108;42.684;23.350;2023-04-25T09:14:16;94426.66;;;14.48;100.00
14067;BME280;7108;42.684;23.350;2023-04-25T09:19:30;94412.94;;;14.65;100.00
14067;BME280;7108;42.684;23.350;2023-04-25T09:22:01;94427.31;;;14.99;100.00
14067;BME280;7108;42.684;23.350;2023-04-25T09:24:40;94424.75;;;15.22;100.00
14067;BME280;7108;42.684;23.350;2023-04-25T09:27:13;94417.25;;;15.33;100.00
14067;BME280;7108;42.684;23.350;2023-04-25T09:29:42;94420.66;;;15.40;100.00
14067;BME280;7108;42.684;23.350;2023-04-25T09:32:18;94417.19;;;15.40;100.00
14067;BME280;7108;42.684;23.350;2023-04-25T09:34:46;94409.91;;;15.33;100.00
14067;BME280;7108;42.684;23.350;2023-04-25T09:37:20;94419.97;;;15.33;100.00
14067;BME280;7108;42.684;23.350;2023-04-25T09:39:47;94407.97;;;15.30;100.00
14067;BME280;7108;42.684;23.350;2023-04-25T09:42:14;94411.53;;;15.27;100.00
14067;BME280;7108;42.684;23.350;2023-04-25T09:44:45;94404.28;;;15.47;100.00
14067;BME280;7108;42.684;23.350;2023-04-25T09:47:12;94391.72;;;15.60;100.00
14067;BME280;7108;42.684;23.350;2023-04-25T09:49:42;94394.06;;;15.84;100.00
14067;BME280;7108;42.684;23.350;2023-04-25T09:52:09;94389.50;;;16.04;100.00
14067;BME280;7108;42.684;23.350;2023-04-25T09:54:34;94402.88;;;16.18;100.00
14067;BME280;7108;42.684;23.350;2023-04-25T09:59:39;94397.28;;;16.51;100.00
14067;BME280;7108;42.684;23.350;2023-04-25T10:02:08;94396.44;;;16.54;100.00
14067;BME280;7108;42.684;23.350;2023-04-25T10:04:35;94406.25;;;16.71;100.00
14067;BME280;7108;42.684;23.350;2023-04-25T10:07:06;94409.34;;;16.73;100.00
14067;BME280;7108;42.684;23.350;2023-04-25T10:09:32;94404.09;;;16.63;100.00
14067;BME280;7108;42.684;23.350;2023-04-25T10:12:01;94401.19;;;16.50;100.00
14067;BME280;7108;42.684;23.350;2023-04-25T10:14:29;94389.78;;;16.36;100.00
14067;BME280;7108;42.684;23.350;2023-04-25T10:16:57;94389.53;;;16.27;100.00
14067;BME280;7108;42.684;23.350;2023-04-25T10:19:24;94400.97;;;16.15;100.00
14067;BME280;7108;42.684;23.350;2023-04-25T10:21:52;94426.47;;;15.98;100.00
14067;BME280;7108;42.684;23.350;2023-04-25T10:24:19;94434.31;;;15.63;100.00
14067;BME280;7108;42.684;23.350;2023-04-25T10:26:46;94411.94;;;15.56;100.00
14067;BME280;7108;42.684;23.350;2023-04-25T10:29:12;94407.16;;;15.63;100.00
14067;BME280;7108;42.684;23.350;2023-04-25T10:31:46;94386.81;;;15.74;100.00
14067;BME280;7108;42.684;23.350;2023-04-25T10:34:12;94389.91;;;16.03;100.00
14067;BME280;7108;42.684;23.350;2023-04-25T10:36:38;94391.16;;;16.21;100.00
14067;BME280;7108;42.684;23.350;2023-04-25T10:39:05;94398.00;;;16.33;100.00
14067;BME280;7108;42.684;23.350;2023-04-25T10:41:45;94410.84;;;16.55;100.00
14067;BME280;7108;42.684;23.350;2023-04-25T10:44:13;94421.47;;;16.46;100.00
14067;BME280;7108;42.684;23.350;2023-04-25T10:46:39;94403.31;;;16.40;100.00
14067;BME280;7108;42.684;23.350;2023-04-25T10:49:07;94392.56;;;16.33;100.00
14067;BME280;7108;42.684;23.350;2023-04-25T10:51:34;94392.38;;;16.43;100.00
14067;BME280;7108;42.684;23.350;2023-04-25T10:54:05;94397.19;;;16.58;100.00
14067;BME280;7108;42.684;23.350;2023-04-25T10:56:39;94388.38;;;16.25;100.00
14067;BME280;7108;42.684;23.350;2023-04-25T10:59:10;94400.22;;;16.41;100.00
14067;BME280;7108;42.684;23.350;2023-04-25T11:01:41;94384.41;;;16.55;100.00
14067;BME280;7108;42.684;23.350;2023-04-25T11:04:25;94379.44;;;16.73;100.00
14067;BME280;7108;42.684;23.350;2023-04-25T11:09:50;94382.56;;;16.91;100.00
14067;BME280;7108;42.684;23.350;2023-04-25T11:12:16;94365.13;;;16.89;100.00
14067;BME280;7108;42.684;23.350;2023-04-25T11:14:42;94371.91;;;17.19;100.00
14067;BME280;7108;42.684;23.350;2023-04-25T11:17:08;94363.75;;;16.81;100.00
14067;BME280;7108;42.684;23.350;2023-04-25T11:19:35;94355.22;;;16.98;100.00
14067;BME280;7108;42.684;23.350;2023-04-25T11:22:02;94362.34;;;17.11;100.00
14067;BME280;7108;42.684;23.350;2023-04-25T11:24:29;94366.56;;;17.16;100.00
14067;BME280;7108;42.684;23.350;2023-04-25T11:26:55;94371.28;;;17.12;100.00
14067;BME280;7108;42.684;23.350;2023-04-25T11:29:22;94368.19;;;16.71;100.00
14067;BME280;7108;42.684;23.350;2023-04-25T11:31:48;94367.09;;;16.46;100.00
14067;BME280;7108;42.684;23.350;2023-04-25T11:34:20;94364.72;;;16.25;100.00
14067;BME280;7108;42.684;23.350;2023-04-25T11:36:46;94366.66;;;16.02;100.00
14067;BME280;7108;42.684;23.350;2023-04-25T11:39:12;94367.91;;;15.94;100.00
14067;BME280;7108;42.684;23.350;2023-04-25T11:41:38;94396.78;;;15.84;100.00
14067;BME280;7108;42.684;23.350;2023-04-25T11:44:04;94395.44;;;15.70;100.00
14067;BME280;7108;42.684;23.350;2023-04-25T11:46:30;94393.22;;;15.61;100.00
14067;BME280;7108;42.684;23.350;2023-04-25T11:48:57;94399.13;;;15.56;100.00
14067;BME280;7108;42.684;23.350;2023-04-25T11:51:22;94400.84;;;15.43;100.00
14067;BME280;7108;42.684;23.350;2023-04-25T11:53:47;94394.13;;;15.21;100.00
14067;BME280;7108;42.684;23.350;2023-04-25T11:56:13;94383.75;;;15.13;100.00
14067;BME280;7108;42.684;23.350;2023-04-25T11:58:58;94379.59;;;15.05;100.00
14067;BME280;7108;42.684;23.350;2023-04-25T12:01:31;94385.97;;;15.25;100.00
14067;BME280;7108;42.684;23.350;2023-04-25T12:03:58;94379.19;;;15.40;100.00
14067;BME280;7108;42.684;23.350;2023-04-25T12:06:27;94377.66;;;15.65;100.00
14067;BME280;7108;42.684;23.350;2023-04-25T12:09:03;94364.03;;;15.69;100.00
14067;BME280;7108;42.684;23.350;2023-04-25T12:11:39;94358.50;;;15.75;100.00
14067;BME280;7108;42.684;23.350;2023-04-25T12:14:05;94370.06;;;15.79;100.00
14067;BME280;7108;42.684;23.350;2023-04-25T12:16:46;94355.56;;;15.63;100.00
14067;BME280;7108;42.684;23.350;2023-04-25T12:19:19;94369.53;;;15.65;100.00
14067;BME280;7108;42.684;23.350;2023-04-25T12:21:45;94364.03;;;15.69;100.00
14067;BME280;7108;42.684;23.350;2023-04-25T12:24:17;94357.22;;;15.83;100.00
14067;BME280;7108;42.684;23.350;2023-04-25T12:27:04;94355.78;;;16.02;100.00
14067;BME280;7108;42.684;23.350;2023-04-25T12:29:31;94358.78;;;16.07;100.00
14067;BME280;7108;42.684;23.350;2023-04-25T12:31:57;94358.50;;;16.02;100.00
14067;BME280;7108;42.684;23.350;2023-04-25T12:34:23;94371.66;;;16.03;100.00
14067;BME280;7108;42.684;23.350;2023-04-25T12:36:51;94398.03;;;15.80;100.00
14067;BME280;7108;42.684;23.350;2023-04-25T12:39:24;94440.66;;;15.20;100.00
14067;BME280;7108;42.684;23.350;2023-04-25T12:41:53;94430.91;;;14.49;100.00
14067;BME280;7108;42.684;23.350;2023-04-25T12:44:21;94436.66;;;14.07;100.00
14067;BME280;7108;42.684;23.350;2023-04-25T12:46:47;94452.00;;;13.67;100.00
14067;BME280;7108;42.684;23.350;2023-04-25T12:49:13;94453.59;;;13.54;100.00
14067;BME280;7108;42.684;23.350;2023-04-25T12:51:39;94451.25;;;13.66;100.00
14067;BME280;7108;42.684;23.350;2023-04-25T12:54:05;94458.63;;;13.55;100.00
14067;BME280;7108;42.684;23.350;2023-04-25T12:56:32;94449.31;;;13.56;100.00